Club Harmony — V7XN2 — position and weather

sailwx.info

Track history (hours):
 
Tides and Currents Weather Stations Pressure Air Temp Water Temp Dewpoint Dewpoint Depression Visibility Wind Speed Wind Dir Waves Ship Positions

Club Harmony

Last reported at 2018-Jul-17 11:23 UTC. Time now 2018-Jul-18 14:42 UTC.
Position N 29°44' W 095°08'.

Length 176 m; draft 7.9 m.

Type: Passenger vessel. MMSI: 538004519.

Date/timePositionNaut miles runAvg speedWind from/ knotsBaromVisibWave heightAir tempDewpointWater temp
2018-Jul-17 11:23N 29°44' W 095°08'0 0.0
2018-Jul-17 10:56N 29°44' W 095°08'0 0.0
2018-Jul-17 08:35N 29°44' W 095°08'0 0.0
2018-Jul-17 08:08N 29°44' W 095°08'0 0.0
2018-Jul-17 07:56N 29°44' W 095°08'0 0.0
2018-Jul-17 07:08N 29°44' W 095°08'0 0.0
2018-Jul-17 06:56N 29°44' W 095°08'0 0.0
2018-Jul-17 06:17N 29°44' W 095°08'0 0.0
2018-Jul-17 05:59N 29°44' W 095°08'0 0.0
2018-Jul-17 05:23N 29°44' W 095°08'0 0.0
2018-Jul-17 04:35N 29°44' W 095°08'0 0.0
2018-Jul-17 04:20N 29°44' W 095°08'0 0.0
2018-Jul-16 16:38N 29°44' W 095°08'0 0.4
2018-Jul-16 16:30N 29°44' W 095°08'1 2.4
2018-Jul-16 16:00N 29°45' W 095°06'2 4.2
2018-Jul-16 15:26N 29°44' W 095°03'2 5.8
2018-Jul-16 15:00N 29°43' W 095°01'4 8.5
2018-Jul-16 14:30N 29°39' W 094°58'611.1
2018-Jul-16 14:00N 29°34' W 094°56'612.0
2018-Jul-16 13:30N 29°29' W 094°52'713.4
2018-Jul-16 13:00N 29°23' W 094°49'612.9
2018-Jul-16 12:30N 29°21' W 094°42'612.5
2018-Jul-16 12:00N 29°17' W 094°36'5 9.8
2018-Jul-16 11:30N 29°15' W 094°31'5 9.2
2018-Jul-16 11:00N 29°12' W 094°27'4 7.8
2018-Jul-16 10:31N 29°08' W 094°26'612.6
2018-Jul-16 10:01N 29°06' W 094°32'2 2.9
2018-Jul-16 09:22N 29°07' W 094°34'0 0.0
2018-Jul-16 08:58N 29°07' W 094°34'0 0.0
2018-Jul-16 08:25N 29°07' W 094°34'0 0.0
2018-Jul-16 07:58N 29°07' W 094°34'0 0.0
2018-Jul-16 07:28N 29°07' W 094°34'0 0.0
2018-Jul-16 06:58N 29°07' W 094°34'0 0.0
2018-Jul-16 06:28N 29°07' W 094°34'0 0.0
2018-Jul-16 05:58N 29°07' W 094°34'0 0.0
2018-Jul-16 05:25N 29°07' W 094°34'0 0.0
2018-Jul-16 04:58N 29°07' W 094°34'0 0.0
2018-Jul-16 03:46N 29°07' W 094°34'0 0.0
2018-Jul-16 03:28N 29°07' W 094°34'0 0.0
2018-Jul-16 02:55N 29°07' W 094°34'0 0.0
2018-Jul-16 02:10N 29°07' W 094°34'0 0.1
2018-Jul-16 01:58N 29°07' W 094°34'0 0.0
2018-Jul-16 01:25N 29°07' W 094°34'0 0.0
2018-Jul-16 00:58N 29°07' W 094°34'0 0.0
2018-Jul-16 00:22N 29°07' W 094°34'0 0.0
2018-Jul-15 23:46N 29°07' W 094°34'0 0.1
2018-Jul-15 23:25N 29°07' W 094°34'0 0.0
2018-Jul-15 22:55N 29°07' W 094°34'0 0.0
2018-Jul-15 22:28N 29°07' W 094°34'0 0.0
2018-Jul-15 21:58N 29°07' W 094°34'0 0.0
2018-Jul-15 21:25N 29°07' W 094°34'0 0.0
2018-Jul-15 20:52N 29°07' W 094°34'0 0.0
2018-Jul-15 20:28N 29°07' W 094°34'0 0.0
2018-Jul-15 19:58N 29°07' W 094°34'0 0.0
2018-Jul-15 19:25N 29°07' W 094°34'0 0.0
2018-Jul-15 18:58N 29°07' W 094°34'0 0.0
2018-Jul-15 17:49N 29°07' W 094°34'0 0.0
2018-Jul-15 17:22N 29°07' W 094°34'0 0.0
2018-Jul-15 16:52N 29°07' W 094°34'0 0.0
2018-Jul-15 16:28N 29°07' W 094°34'0 0.0
2018-Jul-15 15:58N 29°07' W 094°34'0 0.0
2018-Jul-15 15:28N 29°07' W 094°34'0 0.0
2018-Jul-15 14:58N 29°07' W 094°34'0 0.0
2018-Jul-15 14:25N 29°07' W 094°34'0 0.0
2018-Jul-15 13:58N 29°07' W 094°34'0 0.0
2018-Jul-15 13:22N 29°07' W 094°34'0 0.0
2018-Jul-15 12:19N 29°07' W 094°34'0 0.0
2018-Jul-15 11:58N 29°07' W 094°34'0 0.0
2018-Jul-15 09:58N 29°07' W 094°34'0 0.0
2018-Jul-15 09:28N 29°07' W 094°34'0 0.0
2018-Jul-15 08:58N 29°07' W 094°34'0 0.0
2018-Jul-15 08:28N 29°07' W 094°34'0 0.0
2018-Jul-15 07:58N 29°07' W 094°34'0 0.0
2018-Jul-15 07:28N 29°07' W 094°34'0 0.0
2018-Jul-15 06:55N 29°07' W 094°34'0 0.0
2018-Jul-15 06:28N 29°07' W 094°34'0 0.0
2018-Jul-15 05:58N 29°07' W 094°34'0 0.0
2018-Jul-15 05:28N 29°07' W 094°34'0 0.0
2018-Jul-15 04:58N 29°07' W 094°34'0 0.0
2018-Jul-15 04:28N 29°07' W 094°34'0 0.0
2018-Jul-15 03:58N 29°07' W 094°34'0 0.0
2018-Jul-15 03:28N 29°07' W 094°34'0 0.0
2018-Jul-15 02:55N 29°07' W 094°34'0 0.0
2018-Jul-15 02:25N 29°07' W 094°34'0 0.0
2018-Jul-15 01:52N 29°07' W 094°34'0 0.0
2018-Jul-15 01:19N 29°07' W 094°34'0 0.0
2018-Jul-15 00:49N 29°07' W 094°34'0 0.0
2018-Jul-15 00:04N 29°07' W 094°34'0 0.1
2018-Jul-14 23:58N 29°07' W 094°34'0 0.0
2018-Jul-14 23:25N 29°07' W 094°34'0 0.0
2018-Jul-14 22:58N 29°07' W 094°34'0 0.0
2018-Jul-14 22:28N 29°07' W 094°34'0 0.0
2018-Jul-14 21:58N 29°07' W 094°34'0 0.0
2018-Jul-14 21:28N 29°07' W 094°34'0 0.1
2018-Jul-14 20:58N 29°07' W 094°34'0 0.1
2018-Jul-14 20:28N 29°07' W 094°34'0 0.0
2018-Jul-14 19:58N 29°07' W 094°34'0 0.0
2018-Jul-14 19:28N 29°07' W 094°34'0 0.1
2018-Jul-14 18:58N 29°07' W 094°34'0 0.1
2018-Jul-14 18:25N 29°07' W 094°34'0 0.0
2018-Jul-14 17:55N 29°07' W 094°34'0 0.0
2018-Jul-14 17:28N 29°07' W 094°34'0 0.0
2018-Jul-14 16:58N 29°07' W 094°34'0 0.0
2018-Jul-14 16:25N 29°07' W 094°34'0 0.0
2018-Jul-14 15:58N 29°07' W 094°34'0 0.0
2018-Jul-14 15:25N 29°07' W 094°34'0 0.0
2018-Jul-14 14:58N 29°07' W 094°34'0 0.0
2018-Jul-14 13:55N 29°07' W 094°34'0 0.0
2018-Jul-14 13:28N 29°07' W 094°34'0 0.0
2018-Jul-14 12:58N 29°07' W 094°34'0 0.0
2018-Jul-14 12:25N 29°07' W 094°34'0 0.0
2018-Jul-14 11:28N 29°07' W 094°34'0 0.0
2018-Jul-14 10:55N 29°07' W 094°34'0 0.0
2018-Jul-14 10:28N 29°07' W 094°34'0 0.0
2018-Jul-14 09:58N 29°07' W 094°34'0 0.0
2018-Jul-14 09:28N 29°07' W 094°34'0 0.0
2018-Jul-14 08:58N 29°07' W 094°34'0 0.0
2018-Jul-14 08:28N 29°07' W 094°34'0 0.0
2018-Jul-14 07:58N 29°07' W 094°34'0 0.0
2018-Jul-14 07:28N 29°07' W 094°34'0 0.0
2018-Jul-14 06:55N 29°07' W 094°34'0 0.0
2018-Jul-14 06:28N 29°07' W 094°34'0 0.0
2018-Jul-14 05:58N 29°07' W 094°34'0 0.0
2018-Jul-14 05:28N 29°07' W 094°34'0 0.0
2018-Jul-14 04:58N 29°07' W 094°34'0 0.0
2018-Jul-14 04:25N 29°07' W 094°34'0 0.0
2018-Jul-14 03:58N 29°07' W 094°34'0 0.0
2018-Jul-14 03:22N 29°07' W 094°34'0 0.0
2018-Jul-14 01:01N 29°07' W 094°34'0 0.0
2018-Jul-14 00:58N 29°07' W 094°34'0 0.1
2018-Jul-14 00:28N 29°07' W 094°34'0 0.0
2018-Jul-13 23:52N 29°07' W 094°34'0 0.1
2018-Jul-13 23:28N 29°07' W 094°34'0 0.0
2018-Jul-13 22:37N 29°07' W 094°34'0 0.1
2018-Jul-13 22:28N 29°07' W 094°34'0 0.0
2018-Jul-13 21:58N 29°07' W 094°34'0 0.1
2018-Jul-13 21:25N 29°07' W 094°34'0 0.0
2018-Jul-13 20:52N 29°07' W 094°34'0 0.0
2018-Jul-13 20:07N 29°07' W 094°34'0 0.0
2018-Jul-13 19:52N 29°07' W 094°34'0 0.0
2018-Jul-13 19:28N 29°07' W 094°34'0 0.1
2018-Jul-13 18:58N 29°07' W 094°34'0 0.1
2018-Jul-13 18:28N 29°07' W 094°34'0 0.0
2018-Jul-13 17:31N 29°07' W 094°34'0 0.1
2018-Jul-13 17:28N 29°07' W 094°34'0 0.0
2018-Jul-13 16:52N 29°07' W 094°34'0 0.0
2018-Jul-13 16:28N 29°07' W 094°34'0 0.0
2018-Jul-13 15:58N 29°07' W 094°34'0 0.0
2018-Jul-13 15:25N 29°07' W 094°34'0 0.0
2018-Jul-13 14:58N 29°07' W 094°34'0 0.0
2018-Jul-13 13:58N 29°07' W 094°34'0 0.0
2018-Jul-13 13:28N 29°07' W 094°34'0 0.1
2018-Jul-13 12:58N 29°07' W 094°34'0 0.0
2018-Jul-13 12:16N 29°07' W 094°34'0 0.1
2018-Jul-13 11:58N 29°07' W 094°34'0 0.0
2018-Jul-13 11:25N 29°07' W 094°34'0 0.0
2018-Jul-13 10:46N 29°07' W 094°34'0 0.0
2018-Jul-13 10:22N 29°07' W 094°34'0 0.0
2018-Jul-13 09:55N 29°07' W 094°34'0 0.0
2018-Jul-13 09:25N 29°07' W 094°34'0 0.0
2018-Jul-13 08:58N 29°07' W 094°34'0 0.0
2018-Jul-13 08:28N 29°07' W 094°34'0 0.0
2018-Jul-13 07:58N 29°07' W 094°34'0 0.0
2018-Jul-13 07:28N 29°07' W 094°34'0 0.0
2018-Jul-13 06:58N 29°07' W 094°34'0 0.0
2018-Jul-13 06:28N 29°07' W 094°34'0 0.0
2018-Jul-13 05:55N 29°07' W 094°34'0 0.0
2018-Jul-13 05:28N 29°07' W 094°34'0 0.0
2018-Jul-13 04:58N 29°07' W 094°34'0 0.0
2018-Jul-13 04:28N 29°07' W 094°34'0 0.0
2018-Jul-13 03:58N 29°07' W 094°34'0 0.0
2018-Jul-13 00:04N 29°07' W 094°34'0 0.1
2018-Jul-12 23:58N 29°07' W 094°34'0 0.0
2018-Jul-12 23:25N 29°07' W 094°34'0 0.3
2018-Jul-12 22:55N 29°07' W 094°34'0 0.0
2018-Jul-12 22:28N 29°07' W 094°34'0 0.0
2018-Jul-12 21:58N 29°07' W 094°34'0 0.0
2018-Jul-12 21:28N 29°07' W 094°34'0 0.1
2018-Jul-12 20:58N 29°07' W 094°34'0 0.1
2018-Jul-12 20:28N 29°07' W 094°34'0 0.1
2018-Jul-12 19:43N 29°07' W 094°34'0 0.1
2018-Jul-12 19:25N 29°07' W 094°34'0 0.0
2018-Jul-12 18:58N 29°07' W 094°34'0 0.0
2018-Jul-12 18:28N 29°07' W 094°34'0 0.0
2018-Jul-12 17:58N 29°07' W 094°34'0 0.0
2018-Jul-12 17:28N 29°07' W 094°34'0 0.0
2018-Jul-12 04:22N 29°07' W 094°34'0 0.0
2018-Jul-12 03:49N 29°07' W 094°34'0 0.0
2018-Jul-12 03:16N 29°07' W 094°34'0 0.0
2018-Jul-12 02:52N 29°07' W 094°34'0 0.1
2018-Jul-12 02:25N 29°07' W 094°34'0 0.2
2018-Jul-12 01:52N 29°07' W 094°34'0 0.2
2018-Jul-12 01:28N 29°07' W 094°34'0 0.0
2018-Jul-12 00:58N 29°07' W 094°34'0 0.0
2018-Jul-12 00:22N 29°07' W 094°34'0 0.0
2018-Jul-11 08:46N 29°07' W 094°34'0 0.0
2018-Jul-11 08:19N 29°07' W 094°34'0 0.0
2018-Jul-11 00:34N 29°07' W 094°34'0 0.1
2018-Jul-11 00:28N 29°07' W 094°34'0 0.0
2018-Jul-10 22:13N 29°07' W 094°34'0 0.0
2018-Jul-10 12:52N 29°07' W 094°34'0 0.0
2018-Jul-10 12:25N 29°07' W 094°34'0 0.0
2018-Jul-10 08:22N 29°07' W 094°34'0 0.0
2018-Jul-10 07:58N 29°07' W 094°34'0 0.0
2018-Jul-10 07:25N 29°07' W 094°34'0 0.0
2018-Jul-10 06:55N 29°07' W 094°34'0 0.0
2018-Jul-10 06:22N 29°07' W 094°34'0 0.0
2018-Jul-10 05:49N 29°07' W 094°34'20 1.3
2018-Jul-09 15:11N 28°55' W 094°17'2 9.9
2018-Jul-09 14:59N 28°54' W 094°15'5 9.9
2018-Jul-09 14:27N 28°53' W 094°09'610.0
2018-Jul-09 13:49N 28°52' W 094°02'4 9.8
2018-Jul-09 13:23N 28°51' W 093°57'4 9.6
2018-Jul-09 13:00N 28°50' W 093°53'1510.1
2018-Jul-09 11:32N 28°42' W 093°39'  
Track history (hours):
 
Tides and Currents Weather Stations Pressure Air Temp Water Temp Dewpoint Dewpoint Depression Visibility Wind Speed Wind Dir Waves Ship Positions

Club Harmony

Last reported at 2018-Jul-17 11:23 UTC. Time now 2018-Jul-18 14:42 UTC.
Position N 29°44' W 095°08'.

Length 176 m; draft 7.9 m.

Type: Passenger vessel. MMSI: 538004519.

Date/timePositionNaut miles runAvg speedWind from/ knotsBaromVisibWave heightAir tempDewpointWater temp
2018-Jul-17 11:23N 29°44' W 095°08'0 0.0
2018-Jul-17 10:56N 29°44' W 095°08'0 0.0
2018-Jul-17 08:35N 29°44' W 095°08'0 0.0
2018-Jul-17 08:08N 29°44' W 095°08'0 0.0
2018-Jul-17 07:56N 29°44' W 095°08'0 0.0
2018-Jul-17 07:08N 29°44' W 095°08'0 0.0
2018-Jul-17 06:56N 29°44' W 095°08'0 0.0
2018-Jul-17 06:17N 29°44' W 095°08'0 0.0
2018-Jul-17 05:59N 29°44' W 095°08'0 0.0
2018-Jul-17 05:23N 29°44' W 095°08'0 0.0
2018-Jul-17 04:35N 29°44' W 095°08'0 0.0
2018-Jul-17 04:20N 29°44' W 095°08'0 0.0
2018-Jul-16 16:38N 29°44' W 095°08'0 0.4
2018-Jul-16 16:30N 29°44' W 095°08'1 2.4
2018-Jul-16 16:00N 29°45' W 095°06'2 4.2
2018-Jul-16 15:26N 29°44' W 095°03'2 5.8
2018-Jul-16 15:00N 29°43' W 095°01'4 8.5
2018-Jul-16 14:30N 29°39' W 094°58'611.1
2018-Jul-16 14:00N 29°34' W 094°56'612.0
2018-Jul-16 13:30N 29°29' W 094°52'713.4
2018-Jul-16 13:00N 29°23' W 094°49'612.9
2018-Jul-16 12:30N 29°21' W 094°42'612.5
2018-Jul-16 12:00N 29°17' W 094°36'5 9.8
2018-Jul-16 11:30N 29°15' W 094°31'5 9.2
2018-Jul-16 11:00N 29°12' W 094°27'4 7.8
2018-Jul-16 10:31N 29°08' W 094°26'612.6
2018-Jul-16 10:01N 29°06' W 094°32'2 2.9
2018-Jul-16 09:22N 29°07' W 094°34'0 0.0
2018-Jul-16 08:58N 29°07' W 094°34'0 0.0
2018-Jul-16 08:25N 29°07' W 094°34'0 0.0
2018-Jul-16 07:58N 29°07' W 094°34'0 0.0
2018-Jul-16 07:28N 29°07' W 094°34'0 0.0
2018-Jul-16 06:58N 29°07' W 094°34'0 0.0
2018-Jul-16 06:28N 29°07' W 094°34'0 0.0
2018-Jul-16 05:58N 29°07' W 094°34'0 0.0
2018-Jul-16 05:25N 29°07' W 094°34'0 0.0
2018-Jul-16 04:58N 29°07' W 094°34'0 0.0
2018-Jul-16 03:46N 29°07' W 094°34'0 0.0
2018-Jul-16 03:28N 29°07' W 094°34'0 0.0
2018-Jul-16 02:55N 29°07' W 094°34'0 0.0
2018-Jul-16 02:10N 29°07' W 094°34'0 0.1
2018-Jul-16 01:58N 29°07' W 094°34'0 0.0
2018-Jul-16 01:25N 29°07' W 094°34'0 0.0
2018-Jul-16 00:58N 29°07' W 094°34'0 0.0
2018-Jul-16 00:22N 29°07' W 094°34'0 0.0
2018-Jul-15 23:46N 29°07' W 094°34'0 0.1
2018-Jul-15 23:25N 29°07' W 094°34'0 0.0
2018-Jul-15 22:55N 29°07' W 094°34'0 0.0
2018-Jul-15 22:28N 29°07' W 094°34'0 0.0
2018-Jul-15 21:58N 29°07' W 094°34'0 0.0
2018-Jul-15 21:25N 29°07' W 094°34'0 0.0
2018-Jul-15 20:52N 29°07' W 094°34'0 0.0
2018-Jul-15 20:28N 29°07' W 094°34'0 0.0
2018-Jul-15 19:58N 29°07' W 094°34'0 0.0
2018-Jul-15 19:25N 29°07' W 094°34'0 0.0
2018-Jul-15 18:58N 29°07' W 094°34'0 0.0
2018-Jul-15 17:49N 29°07' W 094°34'0 0.0
2018-Jul-15 17:22N 29°07' W 094°34'0 0.0
2018-Jul-15 16:52N 29°07' W 094°34'0 0.0
2018-Jul-15 16:28N 29°07' W 094°34'0 0.0
2018-Jul-15 15:58N 29°07' W 094°34'0 0.0
2018-Jul-15 15:28N 29°07' W 094°34'0 0.0
2018-Jul-15 14:58N 29°07' W 094°34'0 0.0
2018-Jul-15 14:25N 29°07' W 094°34'0 0.0
2018-Jul-15 13:58N 29°07' W 094°34'0 0.0
2018-Jul-15 13:22N 29°07' W 094°34'0 0.0
2018-Jul-15 12:19N 29°07' W 094°34'0 0.0
2018-Jul-15 11:58N 29°07' W 094°34'0 0.0
2018-Jul-15 09:58N 29°07' W 094°34'0 0.0
2018-Jul-15 09:28N 29°07' W 094°34'0 0.0
2018-Jul-15 08:58N 29°07' W 094°34'0 0.0
2018-Jul-15 08:28N 29°07' W 094°34'0 0.0
2018-Jul-15 07:58N 29°07' W 094°34'0 0.0
2018-Jul-15 07:28N 29°07' W 094°34'0 0.0
2018-Jul-15 06:55N 29°07' W 094°34'0 0.0
2018-Jul-15 06:28N 29°07' W 094°34'0 0.0
2018-Jul-15 05:58N 29°07' W 094°34'0 0.0
2018-Jul-15 05:28N 29°07' W 094°34'0 0.0
2018-Jul-15 04:58N 29°07' W 094°34'0 0.0
2018-Jul-15 04:28N 29°07' W 094°34'0 0.0
2018-Jul-15 03:58N 29°07' W 094°34'0 0.0
2018-Jul-15 03:28N 29°07' W 094°34'0 0.0
2018-Jul-15 02:55N 29°07' W 094°34'0 0.0
2018-Jul-15 02:25N 29°07' W 094°34'0 0.0
2018-Jul-15 01:52N 29°07' W 094°34'0 0.0
2018-Jul-15 01:19N 29°07' W 094°34'0 0.0
2018-Jul-15 00:49N 29°07' W 094°34'0 0.0
2018-Jul-15 00:04N 29°07' W 094°34'0 0.1
2018-Jul-14 23:58N 29°07' W 094°34'0 0.0
2018-Jul-14 23:25N 29°07' W 094°34'0 0.0
2018-Jul-14 22:58N 29°07' W 094°34'0 0.0
2018-Jul-14 22:28N 29°07' W 094°34'0 0.0
2018-Jul-14 21:58N 29°07' W 094°34'0 0.0
2018-Jul-14 21:28N 29°07' W 094°34'0 0.1
2018-Jul-14 20:58N 29°07' W 094°34'0 0.1
2018-Jul-14 20:28N 29°07' W 094°34'0 0.0
2018-Jul-14 19:58N 29°07' W 094°34'0 0.0
2018-Jul-14 19:28N 29°07' W 094°34'0 0.1
2018-Jul-14 18:58N 29°07' W 094°34'0 0.1
2018-Jul-14 18:25N 29°07' W 094°34'0 0.0
2018-Jul-14 17:55N 29°07' W 094°34'0 0.0
2018-Jul-14 17:28N 29°07' W 094°34'0 0.0
2018-Jul-14 16:58N 29°07' W 094°34'0 0.0
2018-Jul-14 16:25N 29°07' W 094°34'0 0.0
2018-Jul-14 15:58N 29°07' W 094°34'0 0.0
2018-Jul-14 15:25N 29°07' W 094°34'0 0.0
2018-Jul-14 14:58N 29°07' W 094°34'0 0.0
2018-Jul-14 13:55N 29°07' W 094°34'0 0.0
2018-Jul-14 13:28N 29°07' W 094°34'0 0.0
2018-Jul-14 12:58N 29°07' W 094°34'0 0.0
2018-Jul-14 12:25N 29°07' W 094°34'0 0.0
2018-Jul-14 11:28N 29°07' W 094°34'0 0.0
2018-Jul-14 10:55N 29°07' W 094°34'0 0.0
2018-Jul-14 10:28N 29°07' W 094°34'0 0.0
2018-Jul-14 09:58N 29°07' W 094°34'0 0.0
2018-Jul-14 09:28N 29°07' W 094°34'0 0.0
2018-Jul-14 08:58N 29°07' W 094°34'0 0.0
2018-Jul-14 08:28N 29°07' W 094°34'0 0.0
2018-Jul-14 07:58N 29°07' W 094°34'0 0.0
2018-Jul-14 07:28N 29°07' W 094°34'0 0.0
2018-Jul-14 06:55N 29°07' W 094°34'0 0.0
2018-Jul-14 06:28N 29°07' W 094°34'0 0.0
2018-Jul-14 05:58N 29°07' W 094°34'0 0.0
2018-Jul-14 05:28N 29°07' W 094°34'0 0.0
2018-Jul-14 04:58N 29°07' W 094°34'0 0.0
2018-Jul-14 04:25N 29°07' W 094°34'0 0.0
2018-Jul-14 03:58N 29°07' W 094°34'0 0.0
2018-Jul-14 03:22N 29°07' W 094°34'0 0.0
2018-Jul-14 01:01N 29°07' W 094°34'0 0.0
2018-Jul-14 00:58N 29°07' W 094°34'0 0.1
2018-Jul-14 00:28N 29°07' W 094°34'0 0.0
2018-Jul-13 23:52N 29°07' W 094°34'0 0.1
2018-Jul-13 23:28N 29°07' W 094°34'0 0.0
2018-Jul-13 22:37N 29°07' W 094°34'0 0.1
2018-Jul-13 22:28N 29°07' W 094°34'0 0.0
2018-Jul-13 21:58N 29°07' W 094°34'0 0.1
2018-Jul-13 21:25N 29°07' W 094°34'0 0.0
2018-Jul-13 20:52N 29°07' W 094°34'0 0.0
2018-Jul-13 20:07N 29°07' W 094°34'0 0.0
2018-Jul-13 19:52N 29°07' W 094°34'0 0.0
2018-Jul-13 19:28N 29°07' W 094°34'0 0.1
2018-Jul-13 18:58N 29°07' W 094°34'0 0.1
2018-Jul-13 18:28N 29°07' W 094°34'0 0.0
2018-Jul-13 17:31N 29°07' W 094°34'0 0.1
2018-Jul-13 17:28N 29°07' W 094°34'0 0.0
2018-Jul-13 16:52N 29°07' W 094°34'0 0.0
2018-Jul-13 16:28N 29°07' W 094°34'0 0.0
2018-Jul-13 15:58N 29°07' W 094°34'0 0.0
2018-Jul-13 15:25N 29°07' W 094°34'0 0.0
2018-Jul-13 14:58N 29°07' W 094°34'0 0.0
2018-Jul-13 13:58N 29°07' W 094°34'0 0.0
2018-Jul-13 13:28N 29°07' W 094°34'0 0.1
2018-Jul-13 12:58N 29°07' W 094°34'0 0.0
2018-Jul-13 12:16N 29°07' W 094°34'0 0.1
2018-Jul-13 11:58N 29°07' W 094°34'0 0.0
2018-Jul-13 11:25N 29°07' W 094°34'0 0.0
2018-Jul-13 10:46N 29°07' W 094°34'0 0.0
2018-Jul-13 10:22N 29°07' W 094°34'0 0.0
2018-Jul-13 09:55N 29°07' W 094°34'0 0.0
2018-Jul-13 09:25N 29°07' W 094°34'0 0.0
2018-Jul-13 08:58N 29°07' W 094°34'0 0.0
2018-Jul-13 08:28N 29°07' W 094°34'0 0.0
2018-Jul-13 07:58N 29°07' W 094°34'0 0.0
2018-Jul-13 07:28N 29°07' W 094°34'0 0.0
2018-Jul-13 06:58N 29°07' W 094°34'0 0.0
2018-Jul-13 06:28N 29°07' W 094°34'0 0.0
2018-Jul-13 05:55N 29°07' W 094°34'0 0.0
2018-Jul-13 05:28N 29°07' W 094°34'0 0.0
2018-Jul-13 04:58N 29°07' W 094°34'0 0.0
2018-Jul-13 04:28N 29°07' W 094°34'0 0.0
2018-Jul-13 03:58N 29°07' W 094°34'0 0.0
2018-Jul-13 00:04N 29°07' W 094°34'0 0.1
2018-Jul-12 23:58N 29°07' W 094°34'0 0.0
2018-Jul-12 23:25N 29°07' W 094°34'0 0.3
2018-Jul-12 22:55N 29°07' W 094°34'0 0.0
2018-Jul-12 22:28N 29°07' W 094°34'0 0.0
2018-Jul-12 21:58N 29°07' W 094°34'0 0.0
2018-Jul-12 21:28N 29°07' W 094°34'0 0.1
2018-Jul-12 20:58N 29°07' W 094°34'0 0.1
2018-Jul-12 20:28N 29°07' W 094°34'0 0.1
2018-Jul-12 19:43N 29°07' W 094°34'0 0.1
2018-Jul-12 19:25N 29°07' W 094°34'0 0.0
2018-Jul-12 18:58N 29°07' W 094°34'0 0.0
2018-Jul-12 18:28N 29°07' W 094°34'0 0.0
2018-Jul-12 17:58N 29°07' W 094°34'0 0.0
2018-Jul-12 17:28N 29°07' W 094°34'0 0.0
2018-Jul-12 04:22N 29°07' W 094°34'0 0.0
2018-Jul-12 03:49N 29°07' W 094°34'0 0.0
2018-Jul-12 03:16N 29°07' W 094°34'0 0.0
2018-Jul-12 02:52N 29°07' W 094°34'0 0.1
2018-Jul-12 02:25N 29°07' W 094°34'0 0.2
2018-Jul-12 01:52N 29°07' W 094°34'0 0.2
2018-Jul-12 01:28N 29°07' W 094°34'0 0.0
2018-Jul-12 00:58N 29°07' W 094°34'0 0.0
2018-Jul-12 00:22N 29°07' W 094°34'0 0.0
2018-Jul-11 08:46N 29°07' W 094°34'0 0.0
2018-Jul-11 08:19N 29°07' W 094°34'0 0.0
2018-Jul-11 00:34N 29°07' W 094°34'0 0.1
2018-Jul-11 00:28N 29°07' W 094°34'0 0.0
2018-Jul-10 22:13N 29°07' W 094°34'0 0.0
2018-Jul-10 12:52N 29°07' W 094°34'0 0.0
2018-Jul-10 12:25N 29°07' W 094°34'0 0.0
2018-Jul-10 08:22N 29°07' W 094°34'0 0.0
2018-Jul-10 07:58N 29°07' W 094°34'0 0.0
2018-Jul-10 07:25N 29°07' W 094°34'0 0.0
2018-Jul-10 06:55N 29°07' W 094°34'0 0.0
2018-Jul-10 06:22N 29°07' W 094°34'0 0.0
2018-Jul-10 05:49N 29°07' W 094°34'20 1.3
2018-Jul-09 15:11N 28°55' W 094°17'2 9.9
2018-Jul-09 14:59N 28°54' W 094°15'5 9.9
2018-Jul-09 14:27N 28°53' W 094°09'610.0
2018-Jul-09 13:49N 28°52' W 094°02'4 9.8
2018-Jul-09 13:23N 28°51' W 093°57'4 9.6
2018-Jul-09 13:00N 28°50' W 093°53'1510.1
2018-Jul-09 11:32N 28°42' W 093°39'  

Dump ship's entire track history